Huvudsida
METAR-TAF:

METAR-TAF

Flygplatser :

Sindals flygplats

Sindal, Danmark

latitud: 57-30N, longitud: 010-13E, höjd: 28 m

Aktuellt väderrapport

Denna rapport gjordes för 3 timmar och 57 minuter sedan, klockan 11:50 UTC
Vind 10 kt från syd/sydväst
Temperatur 22°C
Fuktighet 65%
Tryck 1011 hPa
Sikt 10 km eller mer
Spridda moln på en höjd av 1800 ft
Brutna moln på en höjd av 4600 ft

METAR: EKSN 161150Z 20010KT 9999 SCT018 BKN046 22/15 Q1011

Tid: 17:47 (15:47 UTC)

Väderprognos

Denna rapport gjordes för 6 timmar och 36 minuter sedan, klockan 09:11 UTC
Prognos gäller från 16 kl. 09 UTC till 16 kl. 14 UTC
Vind 12 kt från syd
Sikt 10 km eller mer
Brutna moln på en höjd av 3500 ft
Temporärt
från 16 kl. 11 UTC till 16 kl. 14 UTC
Vind 15 kt från syd/sydväst i byarna ända upp till 25 kt

TAF: EKSN 160911Z 1609/1614 19012KT 9999 BKN035 TEMPO 1611/1614 21015G25KT

Aktuella väderrapporter och prognoser från 4000 flygplatser (METAR- och TAF-rapporter).

De tillgängliga stationerna syns som gula och röda prickar på kartan.

För musen över prickarna för att se namnen på stationerna.

Klicka sedan för att få väderrapporter och prognoser.

För att ändra kartan: Klicka på de gröna knapparna med ett svart kors på för att zooma in; den gröna knappen med ett streck på för att zooma ut; eller på de gröna pilarna för angränsande kartor.


METAR-TAF: